Washington, Indiana
Current Conditions -  °F | °C
As of 6:15 PM on Thursday 27 Nov 2014 (Local Time) from KDCY Reporting Station
Overcast Overcast  
Wind Chill: 21°   Ceiling: 3800
Heat Index: 29°   Visibility: 10mi
Dew Point: 21°   Wind: 9mph
Humidity: 71%   Direction: 300°WNW
Pressure: 30.45"   Gusts: NA
Location:  38.66°N, 87.17°W
Report Text: KDCY 280015Z AUTO 30008KT 10SM OVC038 M02/M06 A3045 RMK AO2 T10161062
Loading
Personal Weather Stations






























Interactive Weather Map New forecast layout! Learn more

10-Day Weather Forecast

Advertisements
Track Severe Weather on mobile